EKSP/SKS METAR and TAF weather

Enter ICAO airport designator
Station Type Date Time Source
EKSP METAR 2023/02/05 13:20 UTC NOAA

EKSP 051320Z 30004KT 260V340 CAVOK 04/03 Q1035


Station Type Date Time Source
EKSP Decoded METAR 2023/02/05 13:20 UTC NOAA

Skrydstrup, Denmark (EKSP) 55-14N 009-16E 47M
Feb 05, 2023 - 08:20 AM EST / 2023.02.05 1320 UTC
Wind: from the WNW (300 degrees) at 5 MPH (4 KT) (direction variable):0
Visibility: greater than 7 mile(s):0
Temperature: 39 F (4 C)
Dew Point: 37 F (3 C)
Relative Humidity: 93%
Pressure (altimeter): 30.56 in. Hg (1035 hPa)
ob: EKSP 051320Z 30004KT 260V340 CAVOK 04/03 Q1035
cycle: 13

Station Type Date Time Source
EKSP TAF 2023/02/05 12:31 UTC NOAA

TAF EKSP 051101Z 0512/0612 30012KT 9999 SCT015
TEMPO 0512/0513 5000 BR BKN004
TEMPO 0514/0517 33012G22KT BKN012
BECMG 0519/0521 28004KT
TEMPO 0601/0603 1500 BCFG
TEMPO 0603/0610 0200 FG FZFG VV001
TEMPO 0610/0612 6000 BKN010

Example: see airport list